createdAt,value
2023-03-29T00:02:03.257Z,7.69
2023-03-29T00:04:30.443Z,6.98
2023-03-29T00:06:57.515Z,7.57
2023-03-29T00:09:26.838Z,7.07
2023-03-29T00:11:53.886Z,7.51
2023-03-29T00:14:20.941Z,7.71
2023-03-29T00:16:48.289Z,7.29
2023-03-29T00:19:15.279Z,7.53
2023-03-29T00:22:02.506Z,7.27
2023-03-29T00:24:42.894Z,6.90
2023-03-29T00:27:30.414Z,6.35
2023-03-29T00:30:12.067Z,6.60
2023-03-29T00:32:39.179Z,6.04
2023-03-29T00:35:06.690Z,6.38
2023-03-29T00:37:34.050Z,6.12
2023-03-29T00:40:01.213Z,5.78
2023-03-29T00:42:28.521Z,5.71
2023-03-29T00:45:30.637Z,6.17
2023-03-29T00:48:04.716Z,5.83
2023-03-29T00:50:41.303Z,5.82
2023-03-29T00:53:36.448Z,5.75
2023-03-29T00:56:24.388Z,5.75
2023-03-29T00:59:20.612Z,5.57
2023-03-29T01:01:59.946Z,5.99
2023-03-29T01:04:36.382Z,5.80
2023-03-29T01:07:06.179Z,5.51
2023-03-29T01:09:37.906Z,5.77
2023-03-29T01:12:17.209Z,5.82
2023-03-29T01:14:51.544Z,5.83
2023-03-29T01:17:21.963Z,5.69
2023-03-29T01:20:16.455Z,4.68
2023-03-29T01:23:27.463Z,5.40
2023-03-29T01:26:28.461Z,5.76
2023-03-29T01:29:18.495Z,5.15
2023-03-29T01:32:10.087Z,5.48
2023-03-29T01:34:48.520Z,5.82
2023-03-29T01:37:42.739Z,5.72
2023-03-29T01:40:43.434Z,5.42
2023-03-29T01:43:35.378Z,5.56
2023-03-29T01:46:14.430Z,4.85
2023-03-29T01:49:16.726Z,5.51
2023-03-29T01:51:55.220Z,5.22
2023-03-29T01:54:50.420Z,5.44
2023-03-29T01:57:33.387Z,5.45
2023-03-29T02:00:07.328Z,4.98
2023-03-29T02:02:44.903Z,5.37
2023-03-29T02:05:14.954Z,5.53
2023-03-29T02:07:45.189Z,5.72
2023-03-29T02:10:26.477Z,5.71
2023-03-29T02:13:27.475Z,5.63
2023-03-29T02:16:29.481Z,5.87
2023-03-29T02:19:10.826Z,4.93
2023-03-29T02:21:51.850Z,5.08
2023-03-29T02:24:21.961Z,5.67
2023-03-29T02:27:09.539Z,5.02
2023-03-29T02:30:05.825Z,4.77
2023-03-29T02:33:11.614Z,5.40
2023-03-29T02:35:54.794Z,5.35
2023-03-29T02:38:25.768Z,5.53
2023-03-29T02:40:53.080Z,5.04
2023-03-29T02:43:21.883Z,5.05
2023-03-29T02:45:53.200Z,5.74
2023-03-29T02:48:23.207Z,5.88
2023-03-29T02:50:55.518Z,4.96
2023-03-29T02:53:51.495Z,6.02
2023-03-29T02:56:43.393Z,5.98
2023-03-29T02:59:12.265Z,5.41
2023-03-29T03:02:01.530Z,5.61
2023-03-29T03:04:41.991Z,5.65
2023-03-29T03:07:09.547Z,5.61
2023-03-29T03:09:37.082Z,5.14
2023-03-29T03:12:04.125Z,5.25
2023-03-29T03:14:31.061Z,5.16
2023-03-29T03:17:19.552Z,5.32
2023-03-29T03:20:00.187Z,5.01
2023-03-29T03:22:28.246Z,5.36
2023-03-29T03:24:56.105Z,4.49
2023-03-29T03:27:43.527Z,5.03
2023-03-29T03:30:27.624Z,5.42
2023-03-29T03:33:13.168Z,5.14
2023-03-29T03:36:06.414Z,4.76
2023-03-29T03:38:37.491Z,4.80
2023-03-29T03:41:07.244Z,4.36
2023-03-29T03:43:35.414Z,4.64
2023-03-29T03:46:02.598Z,4.86
2023-03-29T03:48:30.567Z,4.69
2023-03-29T03:51:16.324Z,4.31
2023-03-29T03:54:03.535Z,4.09
2023-03-29T03:57:04.638Z,4.33
2023-03-29T03:59:53.184Z,4.09
2023-03-29T04:03:03.800Z,4.57
2023-03-29T04:05:45.931Z,3.89
2023-03-29T04:08:15.115Z,4.42
2023-03-29T04:11:01.298Z,4.57
2023-03-29T04:13:35.938Z,3.57
2023-03-29T04:16:24.555Z,3.91
2023-03-29T04:18:52.350Z,3.88
2023-03-29T04:21:21.268Z,3.93
2023-03-29T04:23:48.755Z,3.81
2023-03-29T04:26:16.131Z,3.24
2023-03-29T04:29:09.548Z,4.05
2023-03-29T04:31:56.575Z,4.01
2023-03-29T04:34:41.092Z,4.18
2023-03-29T04:37:10.615Z,4.23
2023-03-29T04:39:39.201Z,3.86
2023-03-29T04:42:08.958Z,3.64
2023-03-29T04:44:36.973Z,3.96
2023-03-29T04:47:07.748Z,3.79
2023-03-29T04:49:57.348Z,4.22
2023-03-29T04:52:35.582Z,4.43
2023-03-29T04:55:18.637Z,4.23
2023-03-29T04:58:05.838Z,4.12
2023-03-29T05:01:04.774Z,3.89
2023-03-29T05:04:12.622Z,3.71
2023-03-29T05:07:08.196Z,3.67
2023-03-29T05:09:35.747Z,3.70
2023-03-29T05:12:08.542Z,3.59
2023-03-29T05:14:47.547Z,3.79
2023-03-29T05:17:14.638Z,3.93
2023-03-29T05:19:41.570Z,3.97
2023-03-29T05:22:09.224Z,4.44
2023-03-29T05:24:37.599Z,4.00
2023-03-29T05:27:34.548Z,4.90
2023-03-29T05:30:36.583Z,4.69
2023-03-29T05:33:47.593Z,5.20
2023-03-29T05:36:43.127Z,5.92
2023-03-29T05:39:11.138Z,5.83
2023-03-29T05:41:41.903Z,6.38
2023-03-29T05:44:26.460Z,6.41
2023-03-29T05:46:59.912Z,7.10
2023-03-29T05:49:27.212Z,6.69
2023-03-29T05:52:09.018Z,7.27
2023-03-29T05:54:57.608Z,7.09
2023-03-29T05:57:58.619Z,7.45
2023-03-29T06:00:42.225Z,7.60
2023-03-29T06:03:30.017Z,6.36
2023-03-29T06:06:02.564Z,7.08
2023-03-29T06:08:31.952Z,7.31
2023-03-29T06:11:22.373Z,6.56
2023-03-29T06:14:13.785Z,7.30
2023-03-29T06:16:47.179Z,7.84
2023-03-29T06:19:15.409Z,7.12
2023-03-29T06:21:42.456Z,7.71
2023-03-29T06:24:32.609Z,8.49
2023-03-29T06:27:40.594Z,9.18
2023-03-29T06:30:43.665Z,9.54
2023-03-29T06:33:45.630Z,10.09
2023-03-29T06:36:53.037Z,10.67
2023-03-29T06:39:21.582Z,10.58
2023-03-29T06:42:19.921Z,10.37
2023-03-29T06:45:11.734Z,10.56
2023-03-29T06:47:39.863Z,10.68
2023-03-29T06:50:08.469Z,11.54
2023-03-29T06:53:03.617Z,12.05
2023-03-29T06:56:06.673Z,11.57
2023-03-29T06:58:48.654Z,12.14
2023-03-29T07:01:28.658Z,12.52
2023-03-29T07:04:08.185Z,11.00
2023-03-29T07:07:01.584Z,11.55
2023-03-29T07:09:31.764Z,11.99
2023-03-29T07:12:37.281Z,12.54
2023-03-29T07:15:04.754Z,12.99
2023-03-29T07:17:58.107Z,14.07
2023-03-29T07:20:27.366Z,14.14
2023-03-29T07:23:06.016Z,13.53
2023-03-29T07:25:34.098Z,13.95
2023-03-29T07:28:21.672Z,13.58
2023-03-29T07:31:25.617Z,13.54
2023-03-29T07:34:27.265Z,13.78
2023-03-29T07:36:55.378Z,13.75
2023-03-29T07:39:23.313Z,13.40
2023-03-29T07:42:11.197Z,13.92
2023-03-29T07:44:38.448Z,11.95
2023-03-29T07:47:05.650Z,11.96
2023-03-29T07:49:52.629Z,11.79
2023-03-29T07:52:34.203Z,11.53
2023-03-29T07:55:25.657Z,11.31
2023-03-29T07:58:23.265Z,11.51
2023-03-29T08:00:50.858Z,12.13
2023-03-29T08:03:46.724Z,13.82
2023-03-29T08:06:13.995Z,13.93
2023-03-29T08:08:41.030Z,13.43
2023-03-29T08:11:12.134Z,13.30
2023-03-29T08:13:44.973Z,11.98
2023-03-29T08:16:27.367Z,11.38
2023-03-29T08:19:11.539Z,11.89
2023-03-29T08:21:59.973Z,11.83
2023-03-29T08:24:32.631Z,12.35
2023-03-29T08:27:25.886Z,11.88
2023-03-29T08:30:09.530Z,12.20
2023-03-29T08:32:39.407Z,12.41
2023-03-29T08:35:09.755Z,12.39
2023-03-29T08:37:43.584Z,13.21
2023-03-29T08:40:27.539Z,13.81
2023-03-29T08:43:24.006Z,14.80
2023-03-29T08:46:58.825Z,14.22
2023-03-29T08:50:08.685Z,13.01
2023-03-29T08:53:00.621Z,12.82
2023-03-29T08:56:01.676Z,13.45
2023-03-29T08:59:01.344Z,13.92
2023-03-29T09:01:36.300Z,13.77
2023-03-29T09:04:15.830Z,12.75
2023-03-29T09:06:49.710Z,12.75
2023-03-29T09:09:23.906Z,13.26
2023-03-29T09:12:05.152Z,12.96
2023-03-29T09:14:44.149Z,13.11
2023-03-29T09:17:54.485Z,13.24
2023-03-29T09:21:01.665Z,12.86
2023-03-29T09:24:22.792Z,12.95
2023-03-29T09:27:39.687Z,13.59
2023-03-29T09:30:49.722Z,13.28
2023-03-29T09:33:37.247Z,13.31
2023-03-29T09:36:18.683Z,14.30
2023-03-29T09:38:51.137Z,14.52
2023-03-29T09:41:53.456Z,14.29
2023-03-29T09:44:46.688Z,14.52
2023-03-29T09:47:48.145Z,15.26
2023-03-29T09:50:41.350Z,13.75
2023-03-29T09:53:29.740Z,13.78
2023-03-29T09:56:48.814Z,14.93
2023-03-29T09:59:38.773Z,14.98
2023-03-29T10:02:12.842Z,14.74
2023-03-29T10:04:43.760Z,14.41
2023-03-29T10:07:18.992Z,14.22
2023-03-29T10:09:52.021Z,13.67
2023-03-29T10:12:20.970Z,13.87
2023-03-29T10:14:54.306Z,15.36
2023-03-29T10:17:28.195Z,15.98
2023-03-29T10:20:13.109Z,16.80
2023-03-29T10:23:01.732Z,16.98
2023-03-29T10:26:02.824Z,15.33
2023-03-29T10:28:54.767Z,14.06
2023-03-29T10:31:41.672Z,14.35
2023-03-29T10:34:15.198Z,15.27
2023-03-29T10:36:47.805Z,14.97
2023-03-29T10:39:16.568Z,14.63
2023-03-29T10:41:44.875Z,14.45
2023-03-29T10:44:46.812Z,14.17
2023-03-29T10:47:34.464Z,13.50
2023-03-29T10:50:05.960Z,15.28
2023-03-29T10:52:33.583Z,15.70
2023-03-29T10:55:26.714Z,16.68
2023-03-29T10:58:16.468Z,16.87
2023-03-29T11:00:57.024Z,15.81
2023-03-29T11:04:02.369Z,16.59
2023-03-29T11:07:03.432Z,17.10
2023-03-29T11:09:45.565Z,16.63
2023-03-29T11:12:27.943Z,16.67
2023-03-29T11:15:11.354Z,15.91
2023-03-29T11:17:54.431Z,15.58
2023-03-29T11:20:34.131Z,16.35
2023-03-29T11:23:10.096Z,17.18
2023-03-29T11:25:55.487Z,15.90
2023-03-29T11:28:51.847Z,15.69
2023-03-29T11:32:21.928Z,15.56
2023-03-29T11:35:34.864Z,15.42
2023-03-29T11:38:25.218Z,15.32
2023-03-29T11:41:38.797Z,15.31
2023-03-29T11:44:44.769Z,15.93
2023-03-29T11:47:47.795Z,15.76
2023-03-29T11:50:37.056Z,16.64
2023-03-29T11:53:26.806Z,16.28
2023-03-29T11:56:22.058Z,16.14
2023-03-29T11:58:55.818Z,15.90
2023-03-29T12:01:33.756Z,14.69
2023-03-29T12:04:08.078Z,15.68
2023-03-29T12:06:43.120Z,16.00
2023-03-29T12:09:22.916Z,15.68
2023-03-29T12:12:15.625Z,15.85
2023-03-29T12:15:07.269Z,16.48
2023-03-29T12:18:02.028Z,16.52
2023-03-29T12:20:34.144Z,17.11
2023-03-29T12:23:02.878Z,16.49
2023-03-29T12:25:38.069Z,17.57
2023-03-29T12:28:15.140Z,17.55
2023-03-29T12:31:10.253Z,17.32
2023-03-29T12:33:52.645Z,17.18
2023-03-29T12:36:41.781Z,16.95
2023-03-29T12:39:58.850Z,16.74
2023-03-29T12:43:35.830Z,16.67
2023-03-29T12:46:23.170Z,17.15
2023-03-29T12:48:59.721Z,16.27
2023-03-29T12:51:32.717Z,17.15
2023-03-29T12:54:41.851Z,17.79
2023-03-29T12:57:54.802Z,16.79
2023-03-29T13:00:50.985Z,16.62
2023-03-29T13:03:54.858Z,16.92
2023-03-29T13:07:02.773Z,16.13
2023-03-29T13:09:49.773Z,16.68
2023-03-29T13:12:16.709Z,17.27
2023-03-29T13:14:49.863Z,16.73
2023-03-29T13:18:15.955Z,17.37
2023-03-29T13:21:24.703Z,17.41
2023-03-29T13:23:59.938Z,17.53
2023-03-29T13:27:16.358Z,17.48
2023-03-29T13:29:47.820Z,17.56
2023-03-29T13:32:27.277Z,16.84
2023-03-29T13:35:33.877Z,17.53
2023-03-29T13:38:39.049Z,17.85
2023-03-29T13:41:33.547Z,17.83
2023-03-29T13:44:00.675Z,17.43
2023-03-29T13:46:58.060Z,17.64
2023-03-29T13:50:06.882Z,17.60
2023-03-29T13:53:14.864Z,17.42
2023-03-29T13:56:16.837Z,17.45
2023-03-29T13:59:31.972Z,17.22
2023-03-29T14:02:41.047Z,17.13
2023-03-29T14:05:38.627Z,16.91
2023-03-29T14:08:14.812Z,17.46
2023-03-29T14:10:44.350Z,16.85
2023-03-29T14:13:17.675Z,16.73
2023-03-29T14:15:52.343Z,17.58
2023-03-29T14:18:45.954Z,17.47
2023-03-29T14:21:26.749Z,17.01
2023-03-29T14:24:03.385Z,17.13
2023-03-29T14:26:33.262Z,17.06
2023-03-29T14:29:01.890Z,17.55
2023-03-29T14:31:51.964Z,17.66
2023-03-29T14:34:32.439Z,17.92
2023-03-29T14:36:59.934Z,17.71
2023-03-29T14:39:27.058Z,17.22
2023-03-29T14:41:59.321Z,17.68
2023-03-29T14:44:31.052Z,17.65
2023-03-29T14:46:58.617Z,17.35
2023-03-29T14:49:26.339Z,17.79
2023-03-29T14:51:55.288Z,17.79
2023-03-29T14:54:46.866Z,17.83
2023-03-29T14:57:49.898Z,17.85
2023-03-29T15:00:55.005Z,17.50
2023-03-29T15:04:04.897Z,17.58
2023-03-29T15:06:47.071Z,17.44
2023-03-29T15:09:30.044Z,17.47
2023-03-29T15:12:16.903Z,17.42
2023-03-29T15:14:58.743Z,17.80
2023-03-29T15:17:36.299Z,17.56
2023-03-29T15:20:13.238Z,17.94
2023-03-29T15:22:52.497Z,17.68
2023-03-29T15:25:21.839Z,17.54
2023-03-29T15:28:09.900Z,17.87
2023-03-29T15:31:06.754Z,17.30
2023-03-29T15:33:40.091Z,17.39
2023-03-29T15:36:09.887Z,17.78
2023-03-29T15:38:56.946Z,17.79
2023-03-29T15:41:37.487Z,17.68
2023-03-29T15:44:04.547Z,17.49
2023-03-29T15:46:32.384Z,17.78
2023-03-29T15:48:59.418Z,17.72
2023-03-29T15:51:26.417Z,17.27
2023-03-29T15:54:13.900Z,17.55
2023-03-29T15:57:01.659Z,17.87
2023-03-29T15:59:51.358Z,18.02
2023-03-29T16:02:53.992Z,17.75
2023-03-29T16:05:55.943Z,17.77
2023-03-29T16:08:42.957Z,17.31
2023-03-29T16:11:15.778Z,17.64
2023-03-29T16:13:42.846Z,17.42
2023-03-29T16:16:11.152Z,17.64
2023-03-29T16:18:38.839Z,17.53
2023-03-29T16:21:06.513Z,17.28
2023-03-29T16:23:54.966Z,17.19
2023-03-29T16:26:56.417Z,16.98
2023-03-29T16:29:53.153Z,16.98
2023-03-29T16:32:20.112Z,16.68
2023-03-29T16:34:47.391Z,16.91
2023-03-29T16:37:14.535Z,16.66
2023-03-29T16:39:41.535Z,16.84
2023-03-29T16:42:11.355Z,17.03
2023-03-29T16:44:38.703Z,16.85
2023-03-29T16:47:06.080Z,16.61
2023-03-29T16:49:55.027Z,16.76
2023-03-29T16:52:56.128Z,16.06
2023-03-29T16:55:59.989Z,16.18
2023-03-29T16:58:41.383Z,16.06
2023-03-29T17:01:16.771Z,16.44
2023-03-29T17:03:44.796Z,15.93
2023-03-29T17:06:11.978Z,16.36
2023-03-29T17:08:40.324Z,16.12
2023-03-29T17:11:07.522Z,15.63
2023-03-29T17:13:35.058Z,15.88
2023-03-29T17:16:02.346Z,15.82
2023-03-29T17:18:29.708Z,15.62
2023-03-29T17:20:57.930Z,15.82
2023-03-29T17:23:44.993Z,15.29
2023-03-29T17:26:46.092Z,15.22
2023-03-29T17:29:47.001Z,15.53
2023-03-29T17:32:27.836Z,15.22
2023-03-29T17:34:54.876Z,14.92
2023-03-29T17:37:24.378Z,14.61
2023-03-29T17:39:51.391Z,14.52
2023-03-29T17:42:18.553Z,14.86
2023-03-29T17:44:45.657Z,14.46
2023-03-29T17:47:16.380Z,14.25
2023-03-29T17:49:43.668Z,14.59
2023-03-29T17:52:10.964Z,14.67
2023-03-29T17:54:59.395Z,14.18
2023-03-29T17:58:00.676Z,14.47
2023-03-29T18:00:43.956Z,13.48
2023-03-29T18:03:11.188Z,13.57
2023-03-29T18:05:41.266Z,14.13
2023-03-29T18:08:10.243Z,13.87
2023-03-29T18:10:37.246Z,13.85
2023-03-29T18:13:04.982Z,13.62
2023-03-29T18:15:33.669Z,13.28
2023-03-29T18:18:21.153Z,13.15
2023-03-29T18:21:23.295Z,13.66
2023-03-29T18:24:05.174Z,13.39
2023-03-29T18:26:34.468Z,13.33
2023-03-29T18:29:02.221Z,12.33
2023-03-29T18:31:31.302Z,12.86
2023-03-29T18:33:58.762Z,11.79
2023-03-29T18:36:29.270Z,12.99
2023-03-29T18:39:18.538Z,12.64
2023-03-29T18:42:21.056Z,13.00
2023-03-29T18:45:04.626Z,13.00
2023-03-29T18:47:31.739Z,12.86
2023-03-29T18:50:21.061Z,12.96
2023-03-29T18:53:22.114Z,12.62
2023-03-29T18:56:23.194Z,13.03
2023-03-29T18:59:06.973Z,12.83
2023-03-29T19:01:34.381Z,12.76
2023-03-29T19:04:01.579Z,12.65
2023-03-29T19:06:28.790Z,11.97
2023-03-29T19:08:58.633Z,12.22
2023-03-29T19:11:28.820Z,12.49
2023-03-29T19:13:56.578Z,12.14
2023-03-29T19:16:23.859Z,12.95
2023-03-29T19:18:50.958Z,12.94
2023-03-29T19:21:18.126Z,13.14
2023-03-29T19:23:45.312Z,12.98
2023-03-29T19:26:32.083Z,12.72
2023-03-29T19:29:13.104Z,13.08
2023-03-29T19:32:01.122Z,13.08
2023-03-29T19:34:41.584Z,13.03
2023-03-29T19:37:09.843Z,13.14
2023-03-29T19:39:37.124Z,12.97
2023-03-29T19:42:08.049Z,12.54
2023-03-29T19:44:38.262Z,11.71
2023-03-29T19:47:20.346Z,12.45
2023-03-29T19:50:22.200Z,12.73
2023-03-29T19:53:23.219Z,12.46
2023-03-29T19:56:24.152Z,12.76
2023-03-29T19:59:08.359Z,12.58
2023-03-29T20:01:49.507Z,12.82
2023-03-29T20:04:50.143Z,12.66
2023-03-29T20:07:30.768Z,12.61
2023-03-29T20:09:57.818Z,12.07
2023-03-29T20:12:25.119Z,12.74
2023-03-29T20:14:52.222Z,12.74
2023-03-29T20:17:39.156Z,12.37
2023-03-29T20:20:21.510Z,12.63
2023-03-29T20:22:48.387Z,12.14
2023-03-29T20:25:15.657Z,12.95
2023-03-29T20:27:42.871Z,12.58
2023-03-29T20:30:11.567Z,12.99
2023-03-29T20:32:38.806Z,12.54
2023-03-29T20:35:06.464Z,12.74
2023-03-29T20:37:33.431Z,12.73
2023-03-29T20:40:01.134Z,12.44
2023-03-29T20:42:29.774Z,12.48
2023-03-29T20:45:11.196Z,12.34
2023-03-29T20:47:57.918Z,12.53
2023-03-29T20:50:29.008Z,11.94
2023-03-29T20:52:57.137Z,12.25
2023-03-29T20:55:47.158Z,12.49
2023-03-29T20:58:48.116Z,12.21
2023-03-29T21:01:30.224Z,12.32
2023-03-29T21:04:17.157Z,12.38
2023-03-29T21:07:00.390Z,12.38
2023-03-29T21:09:28.656Z,12.35
2023-03-29T21:11:55.906Z,12.22
2023-03-29T21:14:22.897Z,12.00
2023-03-29T21:16:50.261Z,12.08
2023-03-29T21:19:17.306Z,11.63
2023-03-29T21:21:47.015Z,11.29
2023-03-29T21:24:34.126Z,11.97
2023-03-29T21:27:35.164Z,12.06
2023-03-29T21:30:16.129Z,11.94
2023-03-29T21:33:03.168Z,12.05
2023-03-29T21:35:43.662Z,11.33
2023-03-29T21:38:31.180Z,11.98
2023-03-29T21:41:32.173Z,12.17
2023-03-29T21:44:12.957Z,11.71
2023-03-29T21:46:40.002Z,11.76
2023-03-29T21:49:06.960Z,11.37
2023-03-29T21:51:33.930Z,11.39
2023-03-29T21:54:21.199Z,11.56
2023-03-29T21:57:01.866Z,11.15
2023-03-29T21:59:29.077Z,11.79
2023-03-29T22:02:16.256Z,11.61
2023-03-29T22:05:18.126Z,11.34
2023-03-29T22:08:20.165Z,11.22
2023-03-29T22:11:08.158Z,11.35
2023-03-29T22:13:35.395Z,11.28
2023-03-29T22:16:04.048Z,11.23
2023-03-29T22:18:44.614Z,11.69
2023-03-29T22:21:22.673Z,11.92
2023-03-29T22:23:52.209Z,11.79
2023-03-29T22:26:22.099Z,11.62
2023-03-29T22:28:50.666Z,11.51
2023-03-29T22:31:19.742Z,11.50
2023-03-29T22:33:47.646Z,11.41
2023-03-29T22:36:25.798Z,11.17
2023-03-29T22:39:13.232Z,11.14
2023-03-29T22:41:53.719Z,11.49
2023-03-29T22:44:21.030Z,11.11
2023-03-29T22:46:47.955Z,11.44
2023-03-29T22:49:14.991Z,11.83
2023-03-29T22:51:41.949Z,11.47
2023-03-29T22:54:30.193Z,11.51
2023-03-29T22:57:11.025Z,10.96
2023-03-29T22:59:38.044Z,11.61
2023-03-29T23:02:25.230Z,11.51
2023-03-29T23:05:26.218Z,11.55
2023-03-29T23:08:27.178Z,10.80
2023-03-29T23:11:04.613Z,11.46
2023-03-29T23:13:33.631Z,11.60
2023-03-29T23:16:02.488Z,11.06
2023-03-29T23:18:31.013Z,10.98
2023-03-29T23:20:59.050Z,10.61
2023-03-29T23:23:46.189Z,11.04
2023-03-29T23:26:27.846Z,10.96
2023-03-29T23:28:54.847Z,10.38
2023-03-29T23:31:24.032Z,10.93
2023-03-29T23:33:53.105Z,10.61
2023-03-29T23:36:40.462Z,10.82
2023-03-29T23:39:20.856Z,11.08
2023-03-29T23:41:47.933Z,10.69
2023-03-29T23:44:14.863Z,10.86
2023-03-29T23:46:41.950Z,11.12
2023-03-29T23:49:10.040Z,10.71
2023-03-29T23:51:36.920Z,11.26
2023-03-29T23:54:25.222Z,10.69
2023-03-29T23:57:06.270Z,10.74
2023-03-29T23:59:37.875Z,10.55
